createdAt,value
2022-07-25T00:01:20.375Z,11.60
2022-07-25T00:03:47.110Z,11.47
2022-07-25T00:06:18.048Z,11.83
2022-07-25T00:08:44.893Z,12.27
2022-07-25T00:11:11.576Z,11.70
2022-07-25T00:13:38.148Z,11.43
2022-07-25T00:16:05.221Z,11.30
2022-07-25T00:18:31.872Z,11.60
2022-07-25T00:20:58.962Z,11.83
2022-07-25T00:23:25.680Z,11.33
2022-07-25T00:25:52.410Z,11.43
2022-07-25T00:28:19.005Z,11.47
2022-07-25T00:30:46.465Z,10.80
2022-07-25T00:33:13.428Z,10.77
2022-07-25T00:35:40.042Z,12.17
2022-07-25T00:38:06.641Z,11.20
2022-07-25T00:40:33.293Z,11.50
2022-07-25T00:42:59.890Z,10.77
2022-07-25T00:45:26.664Z,10.77
2022-07-25T00:47:53.440Z,10.60
2022-07-25T00:50:20.086Z,10.90
2022-07-25T00:52:46.733Z,10.23
2022-07-25T00:55:14.005Z,10.77
2022-07-25T00:57:40.777Z,11.03
2022-07-25T01:00:11.252Z,10.83
2022-07-25T01:02:38.030Z,11.47
2022-07-25T01:05:06.361Z,9.93
2022-07-25T01:07:33.281Z,9.90
2022-07-25T01:10:00.303Z,11.30
2022-07-25T01:12:27.102Z,10.70
2022-07-25T01:14:53.769Z,10.30
2022-07-25T01:17:20.373Z,12.73
2022-07-25T01:19:47.339Z,10.70
2022-07-25T01:22:13.977Z,10.40
2022-07-25T01:24:40.645Z,10.30
2022-07-25T01:27:07.375Z,11.23
2022-07-25T01:29:34.112Z,11.53
2022-07-25T01:32:02.860Z,10.50
2022-07-25T01:34:29.489Z,10.77
2022-07-25T01:36:56.107Z,10.07
2022-07-25T01:39:22.714Z,11.03
2022-07-25T01:41:49.313Z,10.40
2022-07-25T01:44:17.169Z,10.83
2022-07-25T01:46:43.869Z,10.90
2022-07-25T01:49:10.595Z,10.23
2022-07-25T01:51:37.295Z,10.40
2022-07-25T01:54:04.274Z,10.33
2022-07-25T01:56:35.690Z,10.80
2022-07-25T01:59:02.646Z,10.50
2022-07-25T02:01:29.291Z,11.20
2022-07-25T02:03:55.922Z,9.87
2022-07-25T02:06:22.505Z,10.80
2022-07-25T02:08:49.100Z,11.00
2022-07-25T02:11:16.558Z,11.13
2022-07-25T02:13:43.253Z,11.17
2022-07-25T02:16:10.204Z,10.97
2022-07-25T02:18:36.911Z,10.20
2022-07-25T02:21:07.073Z,10.17
2022-07-25T02:23:41.946Z,10.50
2022-07-25T02:26:08.552Z,10.80
2022-07-25T02:28:35.159Z,10.63
2022-07-25T02:31:01.908Z,10.83
2022-07-25T02:33:28.753Z,10.20
2022-07-25T02:35:55.794Z,10.93
2022-07-25T02:38:22.444Z,9.90
2022-07-25T02:40:50.916Z,10.73
2022-07-25T02:43:18.826Z,10.50
2022-07-25T02:45:46.020Z,10.83
2022-07-25T02:48:13.128Z,10.47
2022-07-25T02:50:39.761Z,11.40
2022-07-25T02:53:06.448Z,11.90
2022-07-25T02:55:33.093Z,10.90
2022-07-25T02:57:59.758Z,10.60
2022-07-25T03:00:26.506Z,11.13
2022-07-25T03:02:53.176Z,11.90
2022-07-25T03:05:19.856Z,10.37
2022-07-25T03:07:46.517Z,9.80
2022-07-25T03:10:14.146Z,10.70
2022-07-25T03:12:41.970Z,10.80
2022-07-25T03:15:09.803Z,11.27
2022-07-25T03:17:36.583Z,10.83
2022-07-25T03:20:04.868Z,9.80
2022-07-25T03:22:31.523Z,10.13
2022-07-25T03:24:58.172Z,10.43
2022-07-25T03:27:24.822Z,10.93
2022-07-25T03:29:51.500Z,11.00
2022-07-25T03:32:18.096Z,10.47
2022-07-25T03:34:44.720Z,10.50
2022-07-25T03:37:11.298Z,11.20
2022-07-25T03:39:38.026Z,10.70
2022-07-25T03:42:04.642Z,10.77
2022-07-25T03:44:31.364Z,10.80
2022-07-25T03:46:58.135Z,11.10
2022-07-25T03:49:24.871Z,10.53
2022-07-25T03:51:51.439Z,10.67
2022-07-25T03:54:18.029Z,11.00
2022-07-25T03:56:49.068Z,10.30
2022-07-25T03:59:20.845Z,10.90
2022-07-25T04:01:49.742Z,10.80
2022-07-25T04:04:17.655Z,10.80
2022-07-25T04:06:44.695Z,11.00
2022-07-25T04:09:11.742Z,10.00
2022-07-25T04:11:38.476Z,10.23
2022-07-25T04:14:06.325Z,10.60
2022-07-25T04:16:33.708Z,10.40
2022-07-25T04:19:01.159Z,10.50
2022-07-25T04:21:28.561Z,9.53
2022-07-25T04:23:55.279Z,10.70
2022-07-25T04:26:21.884Z,10.70
2022-07-25T04:28:48.465Z,11.00
2022-07-25T04:31:15.315Z,10.90
2022-07-25T04:33:42.728Z,11.50
2022-07-25T04:36:09.976Z,9.83
2022-07-25T04:38:36.788Z,9.40
2022-07-25T04:41:04.305Z,9.77
2022-07-25T04:43:31.003Z,10.70
2022-07-25T04:45:57.725Z,10.40
2022-07-25T04:48:24.395Z,10.53
2022-07-25T04:50:51.256Z,11.00
2022-07-25T04:53:19.065Z,11.20
2022-07-25T04:55:45.716Z,10.60
2022-07-25T04:58:12.397Z,9.60
2022-07-25T05:00:39.202Z,10.83
2022-07-25T05:03:05.848Z,10.53
2022-07-25T05:05:32.624Z,10.43
2022-07-25T05:08:00.035Z,10.50
2022-07-25T05:10:28.671Z,10.30
2022-07-25T05:12:56.244Z,9.47
2022-07-25T05:15:23.056Z,8.10
2022-07-25T05:17:50.493Z,9.40
2022-07-25T05:20:17.221Z,9.67
2022-07-25T05:22:43.925Z,8.47
2022-07-25T05:25:11.641Z,9.70
2022-07-25T05:27:38.703Z,7.60
2022-07-25T05:30:06.910Z,7.80
2022-07-25T05:32:33.537Z,8.20
2022-07-25T05:35:00.132Z,8.60
2022-07-25T05:37:26.900Z,7.77
2022-07-25T05:39:53.533Z,7.43
2022-07-25T05:42:20.199Z,7.13
2022-07-25T05:44:46.866Z,6.67
2022-07-25T05:47:13.625Z,7.33
2022-07-25T05:49:40.370Z,6.90
2022-07-25T05:52:12.429Z,7.20
2022-07-25T05:54:39.892Z,7.13
2022-07-25T05:57:06.480Z,6.60
2022-07-25T05:59:33.055Z,6.30
2022-07-25T06:02:01.616Z,7.13
2022-07-25T06:04:28.385Z,7.00
2022-07-25T06:06:55.924Z,7.10
2022-07-25T06:09:23.253Z,6.50
2022-07-25T06:11:58.129Z,7.23
2022-07-25T06:14:27.473Z,6.13
2022-07-25T06:16:55.469Z,6.80
2022-07-25T06:19:22.248Z,7.63
2022-07-25T06:21:49.077Z,6.33
2022-07-25T06:24:15.718Z,6.93
2022-07-25T06:26:42.695Z,6.10
2022-07-25T06:29:09.446Z,6.53
2022-07-25T06:31:36.121Z,6.33
2022-07-25T06:34:02.908Z,6.70
2022-07-25T06:36:32.181Z,6.40
2022-07-25T06:39:00.020Z,6.40
2022-07-25T06:41:27.092Z,7.43
2022-07-25T06:43:53.662Z,6.63
2022-07-25T06:46:20.361Z,6.20
2022-07-25T06:48:47.057Z,6.60
2022-07-25T06:51:13.844Z,6.60
2022-07-25T06:53:40.461Z,6.30
2022-07-25T06:56:07.310Z,6.30
2022-07-25T06:58:33.929Z,6.83
2022-07-25T07:01:01.182Z,6.30
2022-07-25T07:03:28.064Z,6.77
2022-07-25T07:05:54.895Z,6.20
2022-07-25T07:08:21.562Z,6.90
2022-07-25T07:10:48.425Z,6.50
2022-07-25T07:13:20.739Z,7.00
2022-07-25T07:15:51.461Z,6.47
2022-07-25T07:18:19.089Z,7.07
2022-07-25T07:20:46.315Z,7.10
2022-07-25T07:23:16.604Z,6.60
2022-07-25T07:25:46.797Z,6.90
2022-07-25T07:28:13.626Z,6.97
2022-07-25T07:31:13.498Z,7.13
2022-07-25T07:33:26.828Z,6.50
2022-07-25T07:35:55.865Z,6.57
2022-07-25T07:38:23.956Z,6.80
2022-07-25T07:40:50.549Z,6.50
2022-07-25T07:43:17.168Z,6.00
2022-07-25T07:45:44.365Z,6.90
2022-07-25T07:48:11.167Z,7.33
2022-07-25T07:50:38.287Z,6.97
2022-07-25T07:53:05.128Z,6.50
2022-07-25T07:55:55.109Z,6.67
2022-07-25T07:58:21.803Z,6.80
2022-07-25T08:00:51.527Z,6.30
2022-07-25T08:03:21.797Z,6.23
2022-07-25T08:05:49.258Z,6.17
2022-07-25T08:08:16.868Z,7.00
2022-07-25T08:10:45.571Z,6.83
2022-07-25T08:13:17.606Z,6.93
2022-07-25T08:15:46.798Z,6.60
2022-07-25T08:18:17.943Z,6.47
2022-07-25T08:20:46.648Z,6.10
2022-07-25T08:23:13.565Z,6.17
2022-07-25T08:25:40.531Z,6.77
2022-07-25T08:28:07.552Z,7.20
2022-07-25T08:30:35.838Z,6.47
2022-07-25T08:33:06.982Z,5.97
2022-07-25T08:35:34.701Z,6.37
2022-07-25T08:38:02.600Z,5.67
2022-07-25T08:40:31.234Z,6.40
2022-07-25T08:42:58.787Z,6.70
2022-07-25T08:45:27.814Z,6.87
2022-07-25T08:47:55.581Z,6.77
2022-07-25T08:50:25.491Z,6.17
2022-07-25T08:53:00.904Z,6.53
2022-07-25T08:55:31.757Z,7.73
2022-07-25T08:57:58.337Z,7.80
2022-07-25T09:00:29.734Z,6.50
2022-07-25T09:03:01.944Z,6.90
2022-07-25T09:05:30.491Z,6.70
2022-07-25T09:08:05.533Z,7.30
2022-07-25T09:10:32.342Z,7.47
2022-07-25T09:13:04.188Z,6.30
2022-07-25T09:15:32.034Z,6.50
2022-07-25T09:18:00.705Z,6.30
2022-07-25T09:20:43.854Z,6.40
2022-07-25T09:23:12.706Z,6.90
2022-07-25T09:25:40.028Z,6.50
2022-07-25T09:28:18.617Z,7.03
2022-07-25T09:30:59.292Z,6.27
2022-07-25T09:33:27.941Z,7.33
2022-07-25T09:37:05.037Z,7.40
2022-07-25T09:39:34.038Z,7.63
2022-07-25T09:42:00.718Z,6.57
2022-07-25T09:44:30.392Z,6.20
2022-07-25T09:47:00.793Z,6.97
2022-07-25T09:49:45.096Z,6.60
2022-07-25T09:52:12.521Z,6.53
2022-07-25T09:54:40.266Z,6.27
2022-07-25T09:57:07.124Z,6.83
2022-07-25T09:59:34.764Z,6.80
2022-07-25T10:02:10.003Z,7.13
2022-07-25T10:04:45.512Z,6.97
2022-07-25T10:07:14.696Z,7.10
2022-07-25T10:09:54.287Z,7.73
2022-07-25T10:12:23.380Z,7.03
2022-07-25T10:15:08.194Z,6.87
2022-07-25T10:17:36.153Z,7.03
2022-07-25T10:20:06.334Z,6.90
2022-07-25T10:22:57.298Z,6.83
2022-07-25T10:25:24.419Z,6.67
2022-07-25T10:27:58.144Z,6.57
2022-07-25T10:30:27.078Z,6.53
2022-07-25T10:33:01.684Z,7.30
2022-07-25T10:35:28.908Z,7.67
2022-07-25T10:37:57.704Z,7.43
2022-07-25T10:40:34.950Z,7.03
2022-07-25T10:43:06.827Z,6.70
2022-07-25T10:45:48.669Z,6.17
2022-07-25T10:48:31.667Z,5.87
2022-07-25T10:51:04.385Z,6.40
2022-07-25T10:53:46.138Z,5.70
2022-07-25T10:56:21.036Z,6.50
2022-07-25T10:58:52.063Z,6.60
2022-07-25T11:01:32.942Z,6.07
2022-07-25T11:04:02.622Z,6.67
2022-07-25T11:06:37.405Z,5.60
2022-07-25T11:09:17.651Z,6.10
2022-07-25T11:11:50.619Z,6.10
2022-07-25T11:14:36.290Z,6.63
2022-07-25T11:17:20.125Z,7.17
2022-07-25T11:20:06.145Z,6.03
2022-07-25T11:22:33.260Z,6.33
2022-07-25T11:25:01.006Z,6.90
2022-07-25T11:27:32.111Z,6.50
2022-07-25T11:30:21.598Z,5.30
2022-07-25T11:32:57.705Z,5.50
2022-07-25T11:35:26.870Z,4.90
2022-07-25T11:37:54.351Z,5.30
2022-07-25T11:40:22.616Z,4.37
2022-07-25T11:42:54.561Z,4.90
2022-07-25T11:45:36.480Z,5.80
2022-07-25T11:48:08.760Z,5.20
2022-07-25T11:50:38.079Z,5.27
2022-07-25T11:53:07.668Z,4.90
2022-07-25T11:55:37.272Z,4.73
2022-07-25T11:58:05.221Z,4.50
2022-07-25T12:00:36.538Z,4.23
2022-07-25T12:03:15.441Z,4.57
2022-07-25T12:05:45.557Z,4.67
2022-07-25T12:08:18.060Z,4.60
2022-07-25T12:10:47.463Z,4.80
2022-07-25T12:13:43.564Z,4.60
2022-07-25T12:16:10.200Z,3.80
2022-07-25T12:18:38.421Z,4.07
2022-07-25T12:21:05.350Z,4.63
2022-07-25T12:23:32.321Z,3.77
2022-07-25T12:25:58.989Z,3.97
2022-07-25T12:28:25.808Z,3.43
2022-07-25T12:30:56.452Z,3.77
2022-07-25T12:33:24.109Z,3.50
2022-07-25T12:35:50.892Z,3.70
2022-07-25T12:38:17.617Z,3.93
2022-07-25T12:40:44.704Z,3.27
2022-07-25T12:43:11.289Z,3.20
2022-07-25T12:45:38.343Z,3.00
2022-07-25T12:48:05.290Z,3.03
2022-07-25T12:50:32.095Z,3.30
2022-07-25T12:52:58.746Z,3.97
2022-07-25T12:55:25.409Z,3.30
2022-07-25T12:57:52.004Z,4.27
2022-07-25T13:00:21.385Z,3.10
2022-07-25T13:02:51.009Z,3.27
2022-07-25T13:05:18.651Z,3.73
2022-07-25T13:07:45.401Z,3.13
2022-07-25T13:10:12.609Z,3.10
2022-07-25T13:12:39.229Z,3.93
2022-07-25T13:15:06.364Z,3.40
2022-07-25T13:17:33.138Z,2.93
2022-07-25T13:19:59.914Z,3.43
2022-07-25T13:22:27.343Z,3.53
2022-07-25T13:24:54.534Z,3.10
2022-07-25T13:27:22.281Z,3.07
2022-07-25T13:29:54.124Z,3.00
2022-07-25T13:32:21.989Z,3.20
2022-07-25T13:34:48.741Z,3.07
2022-07-25T13:37:15.493Z,2.83
2022-07-25T13:39:42.271Z,2.93
2022-07-25T13:42:09.400Z,3.17
2022-07-25T13:44:36.211Z,2.70
2022-07-25T13:47:02.863Z,3.30
2022-07-25T13:49:30.784Z,3.10
2022-07-25T13:51:57.395Z,2.73
2022-07-25T13:54:24.047Z,2.87
2022-07-25T13:56:50.719Z,3.30
2022-07-25T13:59:21.217Z,3.43
2022-07-25T14:01:48.888Z,3.30
2022-07-25T14:04:15.775Z,3.70
2022-07-25T14:06:42.770Z,3.67
2022-07-25T14:09:09.830Z,3.53
2022-07-25T14:11:36.807Z,3.93
2022-07-25T14:14:03.596Z,4.13
2022-07-25T14:16:30.306Z,4.23
2022-07-25T14:18:57.035Z,4.27
2022-07-25T14:21:23.983Z,5.00
2022-07-25T14:23:52.208Z,4.93
2022-07-25T14:26:18.848Z,4.97
2022-07-25T14:28:45.489Z,5.03
2022-07-25T14:31:12.194Z,4.60
2022-07-25T14:33:40.051Z,4.73
2022-07-25T14:36:08.227Z,4.67
2022-07-25T14:38:34.988Z,5.00
2022-07-25T14:41:03.403Z,3.77
2022-07-25T14:43:30.205Z,4.13
2022-07-25T14:45:56.911Z,4.73
2022-07-25T14:48:23.526Z,4.00
2022-07-25T14:50:50.361Z,5.70
2022-07-25T14:53:17.024Z,4.90
2022-07-25T14:55:43.643Z,4.37
2022-07-25T14:58:10.274Z,5.40
2022-07-25T15:00:41.544Z,4.60
2022-07-25T15:03:09.498Z,5.87
2022-07-25T15:05:36.490Z,4.93
2022-07-25T15:08:03.155Z,5.00
2022-07-25T15:10:29.790Z,5.90
2022-07-25T15:13:20.491Z,5.27
2022-07-25T15:15:43.168Z,5.50
2022-07-25T15:18:13.868Z,5.70
2022-07-25T15:20:41.106Z,6.10
2022-07-25T15:23:07.773Z,6.70
2022-07-25T15:26:00.666Z,5.70
2022-07-25T15:28:21.716Z,6.40
2022-07-25T15:30:48.479Z,6.00
2022-07-25T15:33:15.335Z,6.40
2022-07-25T15:35:43.810Z,6.77
2022-07-25T15:38:10.414Z,6.10
2022-07-25T15:40:37.341Z,6.10
2022-07-25T15:43:04.108Z,6.80
2022-07-25T15:45:33.112Z,6.30
2022-07-25T15:48:01.393Z,6.10
2022-07-25T15:50:28.014Z,6.60
2022-07-25T15:52:54.674Z,5.73
2022-07-25T15:55:21.376Z,5.77
2022-07-25T15:57:47.974Z,5.40
2022-07-25T16:00:14.813Z,4.13
2022-07-25T16:02:41.501Z,4.70
2022-07-25T16:05:08.400Z,4.60
2022-07-25T16:07:35.027Z,3.17
2022-07-25T16:10:01.686Z,4.03
2022-07-25T16:12:28.928Z,3.40
2022-07-25T16:14:56.227Z,3.67
2022-07-25T16:17:23.695Z,3.60
2022-07-25T16:19:50.330Z,3.53
2022-07-25T16:22:16.914Z,3.00
2022-07-25T16:24:43.541Z,3.10
2022-07-25T16:27:10.225Z,2.60
2022-07-25T16:29:37.403Z,3.00
2022-07-25T16:32:05.362Z,3.10
2022-07-25T16:34:32.760Z,2.67
2022-07-25T16:37:00.063Z,2.77
2022-07-25T16:39:26.692Z,2.60
2022-07-25T16:41:53.774Z,2.53
2022-07-25T16:44:20.582Z,2.43
2022-07-25T16:46:47.249Z,2.27
2022-07-25T16:49:17.014Z,2.40
2022-07-25T16:51:44.721Z,2.20
2022-07-25T16:54:11.605Z,2.27
2022-07-25T16:56:38.856Z,2.53
2022-07-25T16:59:06.957Z,2.50
2022-07-25T17:01:34.969Z,2.70
2022-07-25T17:04:02.106Z,2.00
2022-07-25T17:06:28.773Z,2.40
2022-07-25T17:08:58.735Z,2.60
2022-07-25T17:11:26.721Z,2.17
2022-07-25T17:13:53.317Z,2.30
2022-07-25T17:16:19.975Z,2.43
2022-07-25T17:18:46.594Z,2.60
2022-07-25T17:21:15.187Z,2.33
2022-07-25T17:23:41.966Z,2.40
2022-07-25T17:26:08.573Z,2.43
2022-07-25T17:28:35.418Z,2.53
2022-07-25T17:31:02.139Z,2.40
2022-07-25T17:33:28.759Z,2.80
2022-07-25T17:35:55.353Z,2.60
2022-07-25T17:38:26.303Z,2.63
2022-07-25T17:40:54.410Z,2.20
2022-07-25T17:43:21.136Z,2.20
2022-07-25T17:45:47.899Z,2.30
2022-07-25T17:48:15.474Z,2.40
2022-07-25T17:50:42.254Z,2.40
2022-07-25T17:53:08.887Z,2.40
2022-07-25T17:55:38.793Z,2.60
2022-07-25T17:58:06.038Z,2.20
2022-07-25T18:00:32.704Z,2.17
2022-07-25T18:02:59.642Z,2.40
2022-07-25T18:05:26.707Z,2.40
2022-07-25T18:07:53.857Z,2.40
2022-07-25T18:10:21.748Z,2.10
2022-07-25T18:12:49.292Z,2.20
2022-07-25T18:15:16.490Z,2.33
2022-07-25T18:17:45.291Z,2.30
2022-07-25T18:20:13.715Z,2.40
2022-07-25T18:22:43.632Z,2.40
2022-07-25T18:25:12.086Z,2.67
2022-07-25T18:27:43.261Z,2.47
2022-07-25T18:30:10.898Z,2.07
2022-07-25T18:32:38.670Z,2.97
2022-07-25T18:35:07.696Z,2.60
2022-07-25T18:37:35.305Z,2.40
2022-07-25T18:40:01.942Z,2.60
2022-07-25T18:42:30.102Z,2.43
2022-07-25T18:44:57.212Z,2.23
2022-07-25T18:47:26.082Z,2.10
2022-07-25T18:49:54.063Z,2.00
2022-07-25T18:52:21.468Z,2.47
2022-07-25T18:54:48.151Z,2.10
2022-07-25T18:57:15.194Z,1.87
2022-07-25T18:59:42.134Z,2.07
2022-07-25T19:02:08.839Z,2.27
2022-07-25T19:04:35.728Z,1.90
2022-07-25T19:07:02.508Z,1.77
2022-07-25T19:09:29.160Z,1.80
2022-07-25T19:11:56.584Z,1.80
2022-07-25T19:14:25.941Z,1.50
2022-07-25T19:16:53.735Z,1.70
2022-07-25T19:19:23.174Z,1.97
2022-07-25T19:21:50.052Z,1.57
2022-07-25T19:24:16.711Z,1.70
2022-07-25T19:26:43.986Z,1.73
2022-07-25T19:29:16.398Z,1.50
2022-07-25T19:31:43.333Z,1.73
2022-07-25T19:34:11.122Z,1.80
2022-07-25T19:36:38.303Z,1.90
2022-07-25T19:39:06.022Z,1.43
2022-07-25T19:41:32.757Z,1.40
2022-07-25T19:43:59.432Z,1.50
2022-07-25T19:46:29.529Z,1.23
2022-07-25T19:48:56.325Z,1.90
2022-07-25T19:51:23.010Z,1.80
2022-07-25T19:53:49.642Z,1.90
2022-07-25T19:56:16.254Z,1.50
2022-07-25T19:58:43.480Z,2.17
2022-07-25T20:01:11.010Z,1.83
2022-07-25T20:03:37.763Z,1.77
2022-07-25T20:06:08.004Z,1.77
2022-07-25T20:08:35.430Z,1.73
2022-07-25T20:11:02.131Z,1.70
2022-07-25T20:13:29.593Z,1.90
2022-07-25T20:15:56.237Z,2.37
2022-07-25T20:18:22.838Z,1.60
2022-07-25T20:20:49.677Z,1.47
2022-07-25T20:23:16.475Z,1.50
2022-07-25T20:25:43.112Z,1.20
2022-07-25T20:28:10.029Z,1.17
2022-07-25T20:30:36.702Z,1.70
2022-07-25T20:33:08.023Z,1.20
2022-07-25T20:35:37.722Z,1.10
2022-07-25T20:38:09.321Z,1.33
2022-07-25T20:40:39.140Z,1.10
2022-07-25T20:43:08.432Z,1.50
2022-07-25T20:45:35.125Z,1.40
2022-07-25T20:48:01.798Z,1.30
2022-07-25T20:50:28.572Z,1.10
2022-07-25T20:52:55.210Z,1.40
2022-07-25T20:55:22.286Z,1.10
2022-07-25T20:57:50.881Z,1.17
2022-07-25T21:00:18.025Z,1.10
2022-07-25T21:02:44.767Z,1.00
2022-07-25T21:05:11.551Z,1.00
2022-07-25T21:07:38.278Z,1.50
2022-07-25T21:10:05.270Z,1.00
2022-07-25T21:12:33.033Z,1.43
2022-07-25T21:15:01.117Z,1.40
2022-07-25T21:17:28.085Z,1.20
2022-07-25T21:19:54.729Z,1.33
2022-07-25T21:22:21.489Z,1.30
2022-07-25T21:24:52.247Z,1.20
2022-07-25T21:27:19.817Z,1.30
2022-07-25T21:29:46.849Z,1.33
2022-07-25T21:32:14.002Z,1.07
2022-07-25T21:34:41.781Z,1.33
2022-07-25T21:37:08.492Z,1.20
2022-07-25T21:39:35.218Z,1.30
2022-07-25T21:42:02.146Z,1.10
2022-07-25T21:44:28.729Z,1.30
2022-07-25T21:46:55.340Z,1.20
2022-07-25T21:49:41.579Z,1.00
2022-07-25T21:52:13.633Z,1.03
2022-07-25T21:54:44.337Z,1.13
2022-07-25T21:57:13.539Z,1.00
2022-07-25T21:59:44.833Z,0.73
2022-07-25T22:02:12.161Z,0.93
2022-07-25T22:04:39.405Z,1.10
2022-07-25T22:07:06.527Z,1.00
2022-07-25T22:09:33.112Z,1.10
2022-07-25T22:11:59.788Z,1.37
2022-07-25T22:14:26.738Z,1.20
2022-07-25T22:16:53.713Z,1.00
2022-07-25T22:19:22.457Z,0.83
2022-07-25T22:21:49.812Z,0.90
2022-07-25T22:24:16.484Z,0.90
2022-07-25T22:26:43.271Z,1.00
2022-07-25T22:29:10.358Z,1.40
2022-07-25T22:31:39.099Z,1.07
2022-07-25T22:34:06.125Z,0.90
2022-07-25T22:36:32.762Z,0.90
2022-07-25T22:38:59.375Z,1.03
2022-07-25T22:41:25.954Z,0.80
2022-07-25T22:43:56.541Z,0.90
2022-07-25T22:46:26.930Z,1.20
2022-07-25T22:48:53.697Z,1.00
2022-07-25T22:51:20.388Z,1.27
2022-07-25T22:53:47.004Z,0.97
2022-07-25T22:56:13.604Z,0.83
2022-07-25T22:58:40.315Z,1.00
2022-07-25T23:01:06.966Z,0.90
2022-07-25T23:03:34.630Z,1.23
2022-07-25T23:06:01.263Z,0.90
2022-07-25T23:08:28.350Z,1.10
2022-07-25T23:10:55.763Z,1.30
2022-07-25T23:13:22.548Z,1.43
2022-07-25T23:15:50.307Z,1.47
2022-07-25T23:18:18.265Z,0.90
2022-07-25T23:20:44.816Z,1.30
2022-07-25T23:23:11.474Z,0.90
2022-07-25T23:25:38.039Z,1.00
2022-07-25T23:28:04.876Z,1.10
2022-07-25T23:30:35.327Z,1.20
2022-07-25T23:33:04.762Z,1.30
2022-07-25T23:35:31.559Z,1.50
2022-07-25T23:37:58.262Z,1.00
2022-07-25T23:40:26.656Z,1.10
2022-07-25T23:42:54.276Z,1.50
2022-07-25T23:45:21.605Z,1.23
2022-07-25T23:47:48.329Z,1.27
2022-07-25T23:50:15.626Z,1.40
2022-07-25T23:52:42.311Z,1.47
2022-07-25T23:55:09.794Z,1.20
2022-07-25T23:57:36.400Z,1.30
